MET: Información y Pronóstico Aeronáutico

///////////////////////////////////////////////////////////////////////////////////////////////////////////////////////////////////////////////////////////////////////////////////////////////////////////////////////////////////////////////

Member for

3 años 11 meses
Enviado por meteorologia el Jue, 10/06/2021 - 09:33
24/6

24 DE JUNIO 2022

INFORMACION METEOROLOGICA AERONAUTICA (METAR) 12:00 UTC

Aeropuerto AEROPARQUE J. NEWBERY

24 - 12:00 METAR SABE 241200Z 11009KT 9999 BKN013 OVC034 10/07 Q1024 NOSIG RMK PP000 =

Aeropuerto BAHIA BLANCA

24 - 12:04 METAR SAZB 241200Z 21003KT 9999 -DZ OVC060 04/04 Q1027 RMK PP001 =

Aeropuerto BARILOCHE

24 - 12:00 METAR SAZS 241200Z 14015KT 9999 SCT030 M03/M09 Q1026 RMK PP/// =

Aeropuerto CATAMARCA

24 - 12:00 METAR SANC 241200Z 02005KT 9999 FEW030 M01/M05 Q1019 =

Aeropuerto CHAPELCO

24 - 12:00 METAR SAZY 241200Z 11013KT 3000 SN SCT012 BKN020 OVC050 M01/M02 Q1024 =

Aeropuerto COMODORO RIVADAVIA

24 - 12:00 METAR SAVC 241200Z 22011KT 9999 FEW040 BKN050 04/M01 Q1032 RMK PP999 =

Aeropuerto CORDOBA

24 - 12:00 METAR SACO 241200Z 30003KT 9999 BKN019 02/01 Q1022 NOSIG RMK PP000 =

Aeropuerto CORRIENTES

24 - 12:00 METAR SARC 241200Z 18003KT 6000 -DZ BR OVC004 12/11 Q1019 =

Aeropuerto EL CALAFATE

24 - 12:00 METAR SAWC 241200Z 16002KT CAVOK M10/M10 Q1030 =

Aeropuerto EL PALOMAR

24 - 12:00 METAR SADP 241200Z 12005KT 9999 BKN032 09/06 Q1023 RMK PP000 =

Aeropuerto ESQUEL

24 - 12:00 METAR SAVE 241200Z VRB03KT OVC035 M05/M06 Q1029 =

Aeropuerto EZEIZA

24 - 12:00 METAR SAEZ 241200Z 14005KT 9999 OVC027 07/06 Q1024 NOSIG RMK PP000 =

Aeropuerto FORMOSA

24 - 11:00 METAR SARF 241100Z 20004KT 9999 BKN006 OVC013 13/12 Q1018 =

Aeropuerto IGUAZU/CATARATAS

24 - 12:00 METAR SARI 241200Z VRB01KT 3000 BR OVC002 18/18 Q1019 RMK PP000 =

Aeropuerto JUJUY

24 - 12:00 METAR SASJ 241200Z VRB01KT 5000 FU OVC026 07/05 Q1020 RMK PP000 =

Aeropuerto LA RIOJA

24 - 12:00 METAR SANL 241200Z 27003KT 9999 NSC M01/M02 Q1020 =

Aeropuerto MALARGUE

24 - 12:00 METAR SAMM 241200Z 11003KT 9999 OVC010 M01/M02 Q1020 =

Aeropuerto MAR DEL PLATA

24 - 12:00 METAR SAZM 241200Z 26002KT CAVOK 04/02 Q1025 RMK PP/// =

Aeropuerto MENDOZA

24 - 12:00 METAR SAME 241200Z 20003KT 7000 NSC 00/M02 Q1020 =

Aeropuerto MORON

24 - 12:00 METAR SADM 241200Z 14003KT 5000 BR BKN028 09/06 Q1024 =

Aeropuerto NEUQUEN

24 - 12:00 METAR SAZN 241200Z 14007KT 3000 -SN SCT006 BKN009 06/M06 Q1027 =

Aeropuerto PARANA

24 - 12:00 METAR SAAP 241200Z 14003KT 6000 OVC006 09/08 Q1022 =

Aeropuerto POSADAS

24 - 12:00 METAR SARP 241200Z 14003KT 3000 BR OVC002 15/15 Q1018 =

Aeropuerto PUERTO MADRYN

24 - 12:00 METAR SAVY 241200Z 23010KT CAVOK M02/M04 Q1028 =

Aeropuerto RECONQUISTA

24 - 12:00 METAR SATR 241200Z 20008KT 0200 FG OVC003 10/10 Q1020 =

Aeropuerto RESISTENCIA

24 - 12:00 METAR SARE 241200Z 21004KT 1400 R21/P2000 +DZ BR OVC003 11/10 Q1020 RMK PP/// =

Aeropuerto RIO CUARTO

24 - 12:00 METAR SAOC 241200Z 34004KT 9999 NSC 02/M02 Q1021 =

Aeropuerto RIO GALLEGOS

24 - 12:00 METAR SAWG 241200Z 27012KT CAVOK M01/M02 Q1027 =

Aeropuerto RIO GRANDE

24 - 12:00 METAR SAWE 241200Z 25012KT CAVOK M00/M03 Q1022 RMK PP000 =

Aeropuerto ROSARIO

24 - 12:00 METAR SAAR 241200Z VRB02KT 9000 SCT011 BKN039 09/08 Q1022 RMK PP000 =

Aeropuerto SALTA

24 - 12:00 METAR SASA 241200Z VRB02KT 7000 OVC012 05/02 Q1020 RMK PP000 =

Aeropuerto SAN FERNANDO

24 - 12:00 METAR SADF 241200Z 09008KT 9999 OVC016 10/08 Q1023 RMK PP000 =

Aeropuerto SAN JUAN

24 - 12:00 METAR SANU 241200Z 20003KT NSC M03/M06 Q1020 =

Aeropuerto SAN LUIS

24 - 12:00 METAR SAOU 241200Z 07007KT CAVOK M00/M00 Q1021 RMK ESTIMATED WIND =

Aeropuerto SAN RAFAEL

24 - 12:00 METAR SAMR 241200Z 18002KT CAVOK M04/M04 Q1021 =

Aeropuerto SANTA ROSA

24 - 12:00 METAR SAZR 241200Z 09003KT CAVOK 03/00 Q1025 =

Aeropuerto SANTIAGO DEL ESTERO

24 - 12:00 METAR SANE 241200Z 23003KT CAVOK 08/05 Q1021 =

Aeropuerto SAUCE VIEJO

24 - 12:00 METAR SAAV 241200Z 18006KT 5000 BR OVC008 10/09 Q1021 RMK PP/// =

Aeropuerto TANDIL

24 - 12:00 METAR SAZT 241200Z 20004KT CAVOK 03/01 Q1025 =

Aeropuerto TERMAS DE RIO HONDO

24 - 12:00 METAR SANR 241200Z 07005KT 9999 OVC030 08/04 Q1021 =

Aeropuerto TRELEW

24 - 12:00 METAR SAVT 241200Z 25010KT CAVOK M01/M02 Q1029 =

Aeropuerto TUCUMAN

24 - 12:00 METAR SANT 241200Z 00000 5000 BR FU OVC036 07/05 Q1020 RMK PP000 =

Aeropuerto USHUAIA

24 - 12:00 METAR SAWH 241200Z 25026KT 9999 SCT045 04/M00 Q1022 RMK PP000 =

Aeropuerto VIEDMA

24 - 12:00 METAR SAVV 241200Z 25006KT CAVOK 01/M00 Q1026 =

Aeropuerto VILLA REYNOLDS

24 - 12:00 METAR SAOR 241200Z 00000KT 8000 NSC M05/M06 Q1022 =

 PRONOSTICO DE AERODROMO (TAF) 11:00 UTC

Estación AEROPARQUE J. NEWBERY

24 - 11:00 TAF SABE 241100Z 2412/2512 14010KT 9999 BKN010 OVC030 TX11/2418Z TN06/2511Z PROB30 TEMPO 2413/2418 8000 -DZ BECMG 2418/2420 09005KT SCT030 BECMG 2422/2500 14010KT CAVOK =

Estación BAHIA BLANCA

24 - 11:00 TAF SAZB 241100Z 2412/2512 VRB03KT 8000 -RA BKN030 OVC100 TX07/2418Z TN00/2511Z BECMG 2415/2417 18010KT 9999 NSW BKN035 BECMG 2419/2421 VRB03KT CAVOK BECMG 2502/2505 3000 BR BECMG 2505/2508 0800 FG PROB30 TEMPO 2508/2511 0300 FG OVC002 =

Estación BARILOCHE

24 - 11:00 TAF SAZS 241100Z 2412/2512 14015KT 9999 OVC030 TX01/2418Z TNM03/2511Z 2418/2420 09005KT 9999 SCT020 SCT030 =

Estación CATAMARCA

24 - 11:00 TAF SANC 241100Z 2412/2512 36010KT 9999 SCT050 TX17/2418Z TN02/2511Z BECMG 2422/2501 BKN035 =

Estación CHAPELCO

24 - 11:00 TAF SAZY 241100Z 2412/2512 09010KT 09012KT 6000 SN BKN010 OVC030 TX00/2412Z TNM05/2503Z TEMPO 2412/2415 12015KT 3000 SN OVC008 BECMG 2415/2418 12015KT 8000 -SN BKN010 OVC020 BECMG 2500/2503 5000 -SN BR BKN008 OVC015 TEMPO 0506/2512 0800 FZFG OVC005 =

Estación COMODORO RIVADAVIA

24 - 11:00 TAF SAVC 241100Z 2412/2512 22015KT 9999 BKN025 TX09/2419Z TN01/2510Z BECMG 2416/2418 27010KT CAVOK BECMG 2502/2504 VRB05KT =

Estación CORDOBA

24 - 11:00 TAF SACO 241100Z 2412/2512 VRB03KT 9999 BKN020 TX13/2418Z TNM01/2510Z BECMG 2413/2416 14010KT 9999 SCT025 BECMG 2422/2501 OVC015 TEMPO 2506/2509 8000 DZ OVC010 =

Estación CORRIENTES

24 - 11:00 TAF SARC 241100Z 2412/2512 18005KT 8000 -DZ BR OVC005 TX14/2418Z TN08/2510Z PROB40 2416/2420 9999 OVC006 =

Estación EL CALAFATE

24 - 11:00 TAF SAWC 241100Z 2412/2512 VRB05KT CAVOK TX02/2419Z TNM09/2412Z =

Estación EL PALOMAR

24 - 11:00 TAF SADP 241100Z 2412/2512 14005KT 9999 BKN025 TX12/2418Z TN01/2511Z BECMG 2417/2419 SCT030 BECMG 2500/2502 CAVOK PROB40 2508/2511 VRB03KT 5000 BR NSC =

Estación ESQUEL

24 - 11:00 TAF SAVE 241100Z 2412/2512 VRB05KT 9999 BKN023 TX03/2419Z TNM07/2511Z BECMG 2416/2418 CAVOK =

Estación EZEIZA

24 - 11:00 TAF SAEZ 241100Z 2412/2512 VRB03KT 9999 BKN025 TX12/2418Z TN01/2511Z BECMG 2414/2416 14005KT 9999 BKN025 BECMG 2417/2419 SCT030 BECMG 2500/2502 CAVOK =

Estación FORMOSA

24 - 11:00 TAF SARF 241100Z 2412/2512 23005KT 9999 BKN006 TX18/2418Z TN10/2510Z BECMG 2414/2418 9999 OVC010 BECMG 2422/2424 0500 FG OVC006 =

Estación IGUAZU/CATARATAS

24 - 11:00 TAF SARI 241100Z 2412/2512 VRB02KT 0500 BCFG BKN002 TX18/2418Z TN16/2510Z BECMG 2416/2417 8000 OVC010 BECMG 2502/2503 0500 FG OVC005 =

Estación JUJUY

24 - 11:00 TAF SASJ 241100Z 2412/2512 VRB03KT 9999 BKN025 TX16/2418Z TN05/2510Z TEMPO 2416/2419 07010KT 9999 SCT030 =

Estación LA RIOJA

24 - 11:00 TAF SANL 241100Z 2412/2512 20005KT 9999 SCT045 TX15/2418Z TN02/2511Z BECMG 2500/2503 BKN025 =

Estación MAR DEL PLATA

24 - 11:00 TAF SAZM 241100Z 2412/2512 27005KT CAVOK TX10/2418Z TN03/2511Z BECMG 2412/2414 23010KT 9999 BKN020 TEMPO 2412/2418 6000 DZ BKN008 BECMG 2421/2423 5000 RADZ OVC007 BECMG 2502/2504 27010KT BECMG 2506/2508 0800 FG OVC005 =

Estación MENDOZA

24 - 11:00 TAF SAME 241100Z 2412/2512 14005KT 6000 BR BKN020 TX09/2419Z TNM00/2511Z BECMG 2416/2418 16005KT 9999 NSW SCT030 BECMG 2502/2504 20005KT 6000 DZBR FEW010 OVC020 =

Estación NEUQUEN

24 - 11:00 TAF SAZN 241100Z 2412/2512 14010KT 2000 SN SCT004 BKN008 TX03/2418Z TNM02/2511Z BECMG 2416/2418 9999 SCT020 BKN040 =

Estación PARANA

24 - 11:00 TAF SAAP 241100Z 2412/2512 16005KT 8000 -DZ OVC005 TX14/2418Z TN07/2511Z BECMG 2414/2416 16010KT 9999 NSW BKN010 OVC020 BECMG 2417/2419 BKN015 OVC025 BECMG 2500/2502 7000 OVC010 PROB40 2503/2508 5000 -DZ BR OVC006 =

Estación POSADAS

24 - 11:00 TAF SARP 241100Z 2412/2512 14005KT 2000 BR OVC002 TX16/2418Z TN11/2510Z BECMG 2422/2424 0500 FG OVC003 =

Estación RESISTENCIA

24 - 11:00 TAF SARE 241100Z 2412/2512 18005KT 8000 -DZ OVC004 TX14/2418Z TN08/2510Z PROB40 2416/2420 9999 OVC006 =

Estación RIO CUARTO

24 - 11:00 TAF SAOC 241100Z 2412/2512 02010KT CAVOK TX13/2418Z TN01/2510Z BECMG 2413/2415 07010KT 9999 SCT030 BECMG 2500/2503 09005KT 8000 BKN020 =

Estación RIO GALLEGOS

24 - 11:00 TAF SAWG 241100Z 2412/2512 25010KT CAVOK TX06/2419Z TNM02/2510Z BECMG 2415/2417 27018KT TEMPO 2500/2512 VRB05KT =

Estación RIO GRANDE

24 - 11:00 TAF SAWE 241100Z 2412/2512 25010KT 9999 SCT030 SCT040 TX06/2419Z TNM02/2412Z BECMG 2503/2505 27020KT =

Estación ROSARIO

24 - 11:00 TAF SAAR 241100Z 2412/2512 13010KT 8000 -DZ BKN005 OVC010 TX13/2418Z TN02/2511Z BECMG 2413/2415 9999 BKN015 BECMG 2420/2422 14005KT 9999 SCT030 =

Estación SALTA

24 - 11:00 TAF SASA 241100Z 2412/2512 36005KT 5000 BR OVC015 TX15/2418Z TN05/2510Z BECMG 2413/2416 05010KT 9999 NSW BKN020 BECMG 2423/2502 36005KT 8000 OVC010 =

Estación SAN FERNANDO

24 - 11:00 TAF SADF 241100Z 2412/2512 09010KT 9999 OVC010 TX12/2418Z TN04/2511Z TEMPO 2412/2418 16015KT 5000 DZ OVC008 BECMG 2419/2421 09010KT 9999 BKN020 BECMG 2505/2507 18010KT SCT020 =

Estación SAN JUAN

24 - 11:00 TAF SANU 241100Z 2412/2512 20005KT 6000 BR FEW040 SCT080 TX11/2419Z TNM02/2511Z BECMG 2416/2418 18005KT 9999 SCT040 BECMG 2504/2506 23005KT 9999 FEW020 BKN030 =

Estación SAN LUIS

24 - 11:00 TAF SAOU 241100Z 2412/2512 05005KT 9999 FEW030 SCT100 TX12/2419Z TN01/2509Z BECMG 2416/2418 14005KT 9999 SCT030 SCT100 BECMG 2504/2506 05010KT 9999 FEW020 BKN030 =

Estación SAN RAFAEL

24 - 11:00 TAF SAMR 241100Z 2412/2512 18005KT 9999 FEW030 SCT090 TX08/2419Z TNM02/2511Z BECMG 2420/2422 16005KT 9999 BKN030 BECMG 2504/2506 23005KT 6000 DZ BR OVC020 =

Estación SANTA ROSA

24 - 11:00 TAF SAZR 241100Z 2412/2512 VRB03KT 9999 OVC050 TX10/2418Z TN00/2511Z BECMG 2416/2418 14008KT BECMG 2503/2506 VRB03KT 5000 BR SCT010 BECMG 2506/2508 0800 FG BKN006 =

Estación SANTIAGO DEL ESTERO

24 - 11:00 TAF SANE 241100Z 2412/2512 14005KT 9999 BKN050 TX16/2418Z TN06/2510Z BECMG 2421/2500 8000 BKN015 OVC035 =

Estación SAUCE VIEJO

24 - 11:00 TAF SAAV 241100Z 2412/2512 16005KT 8000 -DZ OVC005 TX14/2418Z TN07/2511Z BECMG 2414/2416 16010KT 9999 NSW BKN010 OVC020 BECMG 2417/2419 BKN015 OVC025 BECMG 2500/2502 7000 OVC010 PROB40 2503/2508 5000 -DZ BR OVC006 =

Estación TERMAS DE RIO HONDO

24 - 11:00 TAF SANR 241100Z 2412/2512 09005KT 9999 BKN030 TX15/2418Z TN04/2510Z BECMG 2500/2503 14005KT 8000 OVC010 =

Estación TRELEW

24 - 11:00 TAF SAVT 241100Z 2412/2512 24015KT 9999 BKN028 TX09/2419Z TNM02/2510Z BECMG 2419/2421 VRB05KT CAVOK =

Estación TUCUMAN

24 - 11:00 TAF SANT 241100Z 2412/2512 VRB02KT 5000 FU BKN035 TX13/2418Z TN06/2510Z BECMG 2414/2417 14010KT 8000 SCT020 SCT035 BECMG 2500/2503 20005KT 6000 OVC010 =

Estación USHUAIA

24 - 11:00 TAF SAWH 241100Z 2412/2512 23015KT 9999 BKN025 TX06/2419Z TN02/2510Z BECMG 2416/2418 28023KT =

Estación VIEDMA

24 - 11:00 TAF SAVV 241100Z 2412/2512 VRB05KT 9999 BKN012 BKN020 TX09/2419Z TN02/2511Z TEMPO 2412/2415 5000 RA BECMG 2415/2417 20015KT BKN023 BECMG 2503/2506 VRB05KT CAVOK =